createdAt,value
2023-01-03T00:01:49.293Z,95674.28
2023-01-03T00:03:53.263Z,95676.53
2023-01-03T00:05:54.986Z,95673.66
2023-01-03T00:07:56.688Z,95666.06
2023-01-03T00:09:58.465Z,95678.13
2023-01-03T00:12:18.732Z,95668.53
2023-01-03T00:14:26.073Z,95668.53
2023-01-03T00:16:27.914Z,95677.69
2023-01-03T00:18:29.595Z,95664.69
2023-01-03T00:20:31.277Z,95668.22
2023-01-03T00:22:33.062Z,95667.91
2023-01-03T00:24:35.098Z,95673.50
2023-01-03T00:26:37.367Z,95671.84
2023-01-03T00:28:39.116Z,95669.78
2023-01-03T00:30:40.889Z,95666.56
2023-01-03T00:32:42.797Z,95671.16
2023-01-03T00:34:45.978Z,95673.97
2023-01-03T00:36:47.750Z,95668.97
2023-01-03T00:38:49.475Z,95673.91
2023-01-03T00:40:51.126Z,95672.22
2023-01-03T00:43:11.655Z,95664.31
2023-01-03T00:45:17.514Z,95667.03
2023-01-03T00:47:21.397Z,95665.97
2023-01-03T00:49:23.138Z,95670.03
2023-01-03T00:51:26.898Z,95659.63
2023-01-03T00:53:28.585Z,95666.50
2023-01-03T00:55:30.356Z,95663.91
2023-01-03T00:57:32.001Z,95664.63
2023-01-03T00:59:33.687Z,95660.66
2023-01-03T01:01:47.089Z,95661.50
2023-01-03T01:03:52.721Z,95663.59
2023-01-03T01:05:54.590Z,95661.00
2023-01-03T01:07:56.602Z,95660.78
2023-01-03T01:09:58.312Z,95666.19
2023-01-03T01:12:00.158Z,95655.06
2023-01-03T01:14:01.925Z,95654.44
2023-01-03T01:16:06.896Z,95660.59
2023-01-03T01:18:08.599Z,95655.50
2023-01-03T01:20:10.319Z,95654.84
2023-01-03T01:22:12.871Z,95651.66
2023-01-03T01:24:18.050Z,95651.84
2023-01-03T01:26:22.174Z,95658.19
2023-01-03T01:28:23.739Z,95648.63
2023-01-03T01:30:25.389Z,95646.75
2023-01-03T01:32:27.220Z,95647.59
2023-01-03T01:34:29.954Z,95651.84
2023-01-03T01:36:33.620Z,95650.38
2023-01-03T01:38:35.400Z,95645.44
2023-01-03T01:40:37.113Z,95649.47
2023-01-03T01:42:57.293Z,95642.59
2023-01-03T01:45:03.604Z,95645.09
2023-01-03T01:47:07.415Z,95639.41
2023-01-03T01:49:13.404Z,95641.69
2023-01-03T01:51:15.638Z,95640.72
2023-01-03T01:53:34.020Z,95630.56
2023-01-03T01:56:03.164Z,95633.66
2023-01-03T01:58:07.370Z,95633.56
2023-01-03T02:00:10.535Z,95638.75
2023-01-03T02:02:14.957Z,95630.31
2023-01-03T02:04:22.124Z,95632.66
2023-01-03T02:06:24.628Z,95643.25
2023-01-03T02:08:26.504Z,95639.59
2023-01-03T02:10:54.449Z,95629.22
2023-01-03T02:13:48.285Z,95642.66
2023-01-03T02:15:56.521Z,95634.31
2023-01-03T02:18:19.569Z,95638.28
2023-01-03T02:20:32.704Z,95633.16
2023-01-03T02:23:02.479Z,95638.84
2023-01-03T02:25:34.703Z,95633.97
2023-01-03T02:27:45.264Z,95638.63
2023-01-03T02:30:09.577Z,95641.31
2023-01-03T02:32:26.280Z,95640.28
2023-01-03T02:34:39.234Z,95637.81
2023-01-03T02:36:58.824Z,95630.16
2023-01-03T02:39:06.646Z,95634.19
2023-01-03T02:41:24.537Z,95625.19
2023-01-03T02:43:52.963Z,95625.47
2023-01-03T02:46:05.103Z,95625.19
2023-01-03T02:48:19.406Z,95616.34
2023-01-03T02:50:21.492Z,95626.00
2023-01-03T02:52:26.780Z,95623.31
2023-01-03T02:54:37.337Z,95621.31
2023-01-03T02:57:00.458Z,95617.81
2023-01-03T02:59:07.136Z,95613.66
2023-01-03T03:01:10.493Z,95622.47
2023-01-03T03:03:15.786Z,95618.00
2023-01-03T03:05:24.989Z,95624.88
2023-01-03T03:07:28.726Z,95626.66
2023-01-03T03:09:30.846Z,95619.78
2023-01-03T03:11:54.500Z,95614.34
2023-01-03T03:14:01.750Z,95614.06
2023-01-03T03:16:07.046Z,95622.88
2023-01-03T03:18:13.023Z,95615.38
2023-01-03T03:20:35.594Z,95618.09
2023-01-03T03:23:15.583Z,95618.28
2023-01-03T03:25:27.355Z,95619.34
2023-01-03T03:27:48.695Z,95612.06
2023-01-03T03:29:52.852Z,95608.97
2023-01-03T03:31:55.506Z,95614.91
2023-01-03T03:34:30.068Z,95616.53
2023-01-03T03:36:44.027Z,95620.81
2023-01-03T03:38:46.451Z,95619.47
2023-01-03T03:41:23.613Z,95620.50
2023-01-03T03:43:51.108Z,95627.13
2023-01-03T03:46:05.856Z,95628.66
2023-01-03T03:48:13.224Z,95635.50
2023-01-03T03:50:20.740Z,95633.25
2023-01-03T03:52:26.492Z,95636.25
2023-01-03T03:54:29.347Z,95633.47
2023-01-03T03:56:34.914Z,95629.00
2023-01-03T03:58:41.500Z,95628.47
2023-01-03T04:00:44.390Z,95638.66
2023-01-03T04:02:49.917Z,95632.75
2023-01-03T04:04:55.666Z,95622.63
2023-01-03T04:06:57.357Z,95626.38
2023-01-03T04:08:59.349Z,95621.53
2023-01-03T04:11:07.348Z,95616.59
2023-01-03T04:13:09.131Z,95617.13
2023-01-03T04:15:11.053Z,95620.66
2023-01-03T04:17:13.027Z,95618.16
2023-01-03T04:19:14.783Z,95622.22
2023-01-03T04:21:20.749Z,95619.09
2023-01-03T04:23:23.030Z,95617.09
2023-01-03T04:25:25.159Z,95616.75
2023-01-03T04:27:26.932Z,95621.63
2023-01-03T04:29:28.522Z,95626.25
2023-01-03T04:31:30.219Z,95618.59
2023-01-03T04:33:31.966Z,95630.22
2023-01-03T04:35:34.375Z,95629.72
2023-01-03T04:37:36.134Z,95624.44
2023-01-03T04:39:37.972Z,95629.72
2023-01-03T04:41:39.676Z,95637.31
2023-01-03T04:43:59.882Z,95630.44
2023-01-03T04:46:01.633Z,95636.94
2023-01-03T04:48:03.763Z,95646.06
2023-01-03T04:50:05.944Z,95652.13
2023-01-03T04:52:08.061Z,95652.84
2023-01-03T04:54:09.784Z,95657.47
2023-01-03T04:56:11.546Z,95656.22
2023-01-03T04:58:13.410Z,95661.41
2023-01-03T05:00:15.658Z,95659.94
2023-01-03T05:02:17.550Z,95657.44
2023-01-03T05:04:19.511Z,95651.84
2023-01-03T05:06:21.247Z,95656.00
2023-01-03T05:08:23.027Z,95660.91
2023-01-03T05:10:26.165Z,95661.75
2023-01-03T05:12:27.861Z,95653.13
2023-01-03T05:14:29.738Z,95664.97
2023-01-03T05:16:31.595Z,95665.81
2023-01-03T05:18:33.562Z,95664.88
2023-01-03T05:20:57.195Z,95667.72
2023-01-03T05:23:17.612Z,95670.19
2023-01-03T05:25:37.740Z,95660.44
2023-01-03T05:27:39.795Z,95667.19
2023-01-03T05:29:41.526Z,95668.03
2023-01-03T05:31:43.309Z,95665.94
2023-01-03T05:33:45.082Z,95661.69
2023-01-03T05:35:47.704Z,95660.22
2023-01-03T05:37:53.146Z,95663.53
2023-01-03T05:39:54.805Z,95653.47
2023-01-03T05:42:02.518Z,95663.53
2023-01-03T05:44:04.352Z,95663.53
2023-01-03T05:46:06.023Z,95654.00
2023-01-03T05:48:08.750Z,95655.00
2023-01-03T05:50:10.741Z,95659.03
2023-01-03T05:52:12.658Z,95656.44
2023-01-03T05:54:15.744Z,95660.06
2023-01-03T05:56:17.402Z,95664.34
2023-01-03T05:58:19.370Z,95660.84
2023-01-03T06:00:21.084Z,95666.69
2023-01-03T06:02:22.858Z,95667.34
2023-01-03T06:04:24.791Z,95676.38
2023-01-03T06:06:26.585Z,95679.94
2023-01-03T06:08:28.265Z,95666.81
2023-01-03T06:10:29.988Z,95675.34
2023-01-03T06:12:32.144Z,95680.44
2023-01-03T06:14:33.853Z,95674.22
2023-01-03T06:16:54.292Z,95680.06
2023-01-03T06:18:56.056Z,95681.31
2023-01-03T06:20:57.691Z,95687.44
2023-01-03T06:22:59.441Z,95692.53
2023-01-03T06:25:01.191Z,95694.59
2023-01-03T06:27:03.038Z,95695.94
2023-01-03T06:29:05.581Z,95699.19
2023-01-03T06:31:07.353Z,95687.66
2023-01-03T06:33:09.073Z,95691.13
2023-01-03T06:35:11.127Z,95687.94
2023-01-03T06:37:12.780Z,95681.91
2023-01-03T06:39:14.514Z,95684.72
2023-01-03T06:41:16.581Z,95685.81
2023-01-03T06:43:18.201Z,95684.38
2023-01-03T06:45:38.492Z,95682.50
2023-01-03T06:47:58.568Z,95695.41
2023-01-03T06:50:18.708Z,95691.31
2023-01-03T06:52:39.048Z,95701.50
2023-01-03T06:54:40.960Z,95696.91
2023-01-03T06:56:42.702Z,95707.00
2023-01-03T06:58:44.453Z,95707.69
2023-01-03T07:00:46.549Z,95709.75
2023-01-03T07:02:48.290Z,95709.00
2023-01-03T07:04:50.184Z,95706.66
2023-01-03T07:06:52.174Z,95712.88
2023-01-03T07:08:54.026Z,95716.19
2023-01-03T07:10:56.055Z,95715.06
2023-01-03T07:13:18.965Z,95718.56
2023-01-03T07:15:20.647Z,95724.56
2023-01-03T07:17:22.393Z,95725.78
2023-01-03T07:19:24.058Z,95721.19
2023-01-03T07:21:27.809Z,95733.19
2023-01-03T07:23:29.503Z,95727.22
2023-01-03T07:25:31.242Z,95735.31
2023-01-03T07:27:33.019Z,95726.81
2023-01-03T07:29:34.663Z,95729.41
2023-01-03T07:31:39.934Z,95727.03
2023-01-03T07:33:41.792Z,95729.75
2023-01-03T07:35:43.632Z,95727.38
2023-01-03T07:37:45.346Z,95731.22
2023-01-03T07:39:47.082Z,95730.72
2023-01-03T07:42:07.352Z,95729.13
2023-01-03T07:44:09.103Z,95721.25
2023-01-03T07:46:18.449Z,95719.13
2023-01-03T07:48:20.218Z,95722.59
2023-01-03T07:50:21.890Z,95719.66
2023-01-03T07:52:23.552Z,95722.66
2023-01-03T07:54:25.293Z,95721.72
2023-01-03T07:56:26.940Z,95718.34
2023-01-03T07:58:28.506Z,95723.13
2023-01-03T08:00:30.461Z,95722.59
2023-01-03T08:02:32.186Z,95727.38
2023-01-03T08:04:33.989Z,95724.03
2023-01-03T08:06:35.764Z,95731.19
2023-01-03T08:08:37.837Z,95729.78
2023-01-03T08:10:58.006Z,95729.34
2023-01-03T08:13:17.809Z,95731.63
2023-01-03T08:15:19.532Z,95728.84
2023-01-03T08:17:21.258Z,95724.03
2023-01-03T08:19:23.990Z,95719.09
2023-01-03T08:21:25.618Z,95727.28
2023-01-03T08:23:27.442Z,95723.41
2023-01-03T08:25:29.172Z,95726.50
2023-01-03T08:27:30.888Z,95731.97
2023-01-03T08:29:32.626Z,95729.25
2023-01-03T08:31:37.105Z,95722.38
2023-01-03T08:33:42.704Z,95718.03
2023-01-03T08:35:48.714Z,95720.19
2023-01-03T08:37:50.839Z,95724.59
2023-01-03T08:39:57.041Z,95722.44
2023-01-03T08:42:01.540Z,95718.06
2023-01-03T08:44:05.133Z,95725.41
2023-01-03T08:46:08.047Z,95719.72
2023-01-03T08:48:10.833Z,95719.03
2023-01-03T08:50:13.328Z,95716.75
2023-01-03T08:52:15.014Z,95719.72
2023-01-03T08:54:16.742Z,95717.97
2023-01-03T08:56:21.833Z,95709.06
2023-01-03T08:58:23.735Z,95719.25
2023-01-03T09:00:26.125Z,95714.53
2023-01-03T09:02:28.097Z,95702.63
2023-01-03T09:04:29.973Z,95714.88
2023-01-03T09:06:31.960Z,95707.13
2023-01-03T09:08:34.417Z,95706.28
2023-01-03T09:10:39.669Z,95708.53
2023-01-03T09:12:43.857Z,95709.94
2023-01-03T09:14:45.502Z,95699.78
2023-01-03T09:16:49.307Z,95696.88
2023-01-03T09:18:51.351Z,95704.16
2023-01-03T09:20:53.229Z,95695.66
2023-01-03T09:22:54.992Z,95693.25
2023-01-03T09:24:56.697Z,95691.13
2023-01-03T09:26:58.417Z,95685.72
2023-01-03T09:29:00.103Z,95687.13
2023-01-03T09:31:02.018Z,95678.25
2023-01-03T09:33:04.982Z,95676.03
2023-01-03T09:35:07.306Z,95667.00
2023-01-03T09:37:08.986Z,95659.41
2023-01-03T09:39:10.754Z,95658.19
2023-01-03T09:41:17.888Z,95657.94
2023-01-03T09:43:25.428Z,95654.38
2023-01-03T09:45:32.714Z,95656.06
2023-01-03T09:47:38.290Z,95648.63
2023-01-03T09:49:52.090Z,95645.50
2023-01-03T09:52:20.409Z,95642.66
2023-01-03T09:54:46.618Z,95635.53
2023-01-03T09:57:07.000Z,95644.41
2023-01-03T09:59:35.582Z,95635.78
2023-01-03T10:02:05.130Z,95636.47
2023-01-03T10:04:36.230Z,95634.69
2023-01-03T10:06:44.075Z,95629.41
2023-01-03T10:08:55.428Z,95626.41
2023-01-03T10:11:26.154Z,95612.25
2023-01-03T10:13:36.972Z,95613.09
2023-01-03T10:15:51.633Z,95613.22
2023-01-03T10:18:10.258Z,95611.00
2023-01-03T10:20:33.872Z,95607.69
2023-01-03T10:22:36.357Z,95609.06
2023-01-03T10:24:53.528Z,95605.63
2023-01-03T10:27:12.048Z,95597.72
2023-01-03T10:29:16.771Z,95586.88
2023-01-03T10:31:50.665Z,95588.06
2023-01-03T10:33:52.633Z,95575.25
2023-01-03T10:35:54.604Z,95577.66
2023-01-03T10:37:57.201Z,95576.00
2023-01-03T10:40:03.899Z,95568.41
2023-01-03T10:42:05.637Z,95578.75
2023-01-03T10:44:07.268Z,95563.75
2023-01-03T10:46:15.897Z,95568.56
2023-01-03T10:48:17.642Z,95566.06
2023-01-03T10:50:21.719Z,95560.28
2023-01-03T10:52:24.013Z,95562.00
2023-01-03T10:54:31.451Z,95551.53
2023-01-03T10:56:35.369Z,95549.47
2023-01-03T10:58:38.251Z,95547.94
2023-01-03T11:00:39.930Z,95543.69
2023-01-03T11:02:45.035Z,95537.06
2023-01-03T11:04:46.753Z,95533.00
2023-01-03T11:07:12.276Z,95538.47
2023-01-03T11:09:15.217Z,95538.47
2023-01-03T11:11:31.816Z,95538.50
2023-01-03T11:13:40.905Z,95536.66
2023-01-03T11:15:42.918Z,95531.28
2023-01-03T11:18:05.222Z,95520.03
2023-01-03T11:20:18.536Z,95524.28
2023-01-03T11:22:41.600Z,95521.91
2023-01-03T11:24:43.186Z,95518.75
2023-01-03T11:26:51.623Z,95509.84
2023-01-03T11:29:13.609Z,95519.59
2023-01-03T11:31:21.082Z,95505.47
2023-01-03T11:33:29.950Z,95500.56
2023-01-03T11:35:50.171Z,95499.09
2023-01-03T11:38:10.628Z,95492.59
2023-01-03T11:40:41.528Z,95495.38
2023-01-03T11:43:00.500Z,95490.59
2023-01-03T11:45:48.097Z,95487.91
2023-01-03T11:48:12.341Z,95489.50
2023-01-03T11:50:46.560Z,95482.50
2023-01-03T11:52:55.220Z,95478.00
2023-01-03T11:55:09.341Z,95474.44
2023-01-03T11:57:56.117Z,95477.59
2023-01-03T12:00:03.862Z,95473.63
2023-01-03T12:02:27.587Z,95470.75
2023-01-03T12:04:30.761Z,95470.22
2023-01-03T12:07:21.885Z,95464.78
2023-01-03T12:09:22.486Z,95469.94
2023-01-03T12:11:36.346Z,95467.94
2023-01-03T12:14:06.409Z,95466.88
2023-01-03T12:16:10.627Z,95459.81
2023-01-03T12:18:41.421Z,95451.09
2023-01-03T12:20:47.743Z,95462.78
2023-01-03T12:22:56.948Z,95457.09
2023-01-03T12:25:20.829Z,95455.72
2023-01-03T12:27:29.242Z,95459.75
2023-01-03T12:29:39.095Z,95453.22
2023-01-03T12:31:45.563Z,95453.28
2023-01-03T12:34:03.944Z,95460.97
2023-01-03T12:36:23.721Z,95458.69
2023-01-03T12:38:40.471Z,95452.16
2023-01-03T12:40:55.943Z,95446.16
2023-01-03T12:43:04.925Z,95452.28
2023-01-03T12:45:12.456Z,95455.81
2023-01-03T12:47:33.178Z,95453.63
2023-01-03T12:50:01.195Z,95447.44
2023-01-03T12:52:02.842Z,95446.84
2023-01-03T12:54:23.472Z,95442.50
2023-01-03T12:56:45.321Z,95450.03
2023-01-03T12:59:15.480Z,95444.66
2023-01-03T13:01:27.634Z,95440.91
2023-01-03T13:03:50.590Z,95441.06
2023-01-03T13:05:57.113Z,95451.19
2023-01-03T13:08:10.080Z,95452.00
2023-01-03T13:10:16.772Z,95456.50
2023-01-03T13:12:25.979Z,95448.53
2023-01-03T13:14:28.901Z,95445.97
2023-01-03T13:16:36.650Z,95448.94
2023-01-03T13:18:38.373Z,95445.47
2023-01-03T13:20:43.627Z,95451.22
2023-01-03T13:22:56.215Z,95445.28
2023-01-03T13:25:26.850Z,95451.06
2023-01-03T13:27:37.195Z,95445.34
2023-01-03T13:30:02.933Z,95443.56
2023-01-03T13:32:26.170Z,95441.63
2023-01-03T13:34:33.270Z,95439.16
2023-01-03T13:37:03.989Z,95442.47
2023-01-03T13:39:36.978Z,95440.81
2023-01-03T13:41:39.225Z,95441.97
2023-01-03T13:43:40.927Z,95439.53
2023-01-03T13:45:42.556Z,95441.66
2023-01-03T13:47:49.452Z,95442.16
2023-01-03T13:49:53.954Z,95441.97
2023-01-03T13:51:57.593Z,95438.38
2023-01-03T13:54:02.616Z,95436.69
2023-01-03T13:56:16.260Z,95440.13
2023-01-03T13:58:54.711Z,95439.13
2023-01-03T14:01:05.215Z,95440.81
2023-01-03T14:03:28.112Z,95445.38
2023-01-03T14:06:02.947Z,95447.13
2023-01-03T14:08:23.448Z,95453.13
2023-01-03T14:10:55.920Z,95453.81
2023-01-03T14:13:06.507Z,95456.03
2023-01-03T14:15:30.076Z,95449.69
2023-01-03T14:17:33.445Z,95455.34
2023-01-03T14:19:36.816Z,95454.22
2023-01-03T14:22:20.962Z,95460.47
2023-01-03T14:24:25.708Z,95454.94
2023-01-03T14:26:27.709Z,95455.63
2023-01-03T14:28:32.618Z,95455.63
2023-01-03T14:30:37.596Z,95458.59
2023-01-03T14:32:40.142Z,95461.47
2023-01-03T14:34:42.172Z,95458.19
2023-01-03T14:36:48.227Z,95460.09
2023-01-03T14:38:55.606Z,95459.22
2023-01-03T14:40:57.978Z,95461.19
2023-01-03T14:43:03.904Z,95460.16
2023-01-03T14:45:07.245Z,95462.13
2023-01-03T14:47:17.839Z,95460.59
2023-01-03T14:49:25.647Z,95457.81
2023-01-03T14:51:30.161Z,95459.94
2023-01-03T14:53:33.561Z,95458.91
2023-01-03T14:55:35.449Z,95464.97
2023-01-03T14:57:39.009Z,95466.59
2023-01-03T14:59:40.843Z,95460.66
2023-01-03T15:01:44.396Z,95468.69
2023-01-03T15:03:47.754Z,95463.06
2023-01-03T15:05:57.176Z,95466.44
2023-01-03T15:08:22.523Z,95459.41
2023-01-03T15:10:37.526Z,95470.22
2023-01-03T15:12:40.794Z,95461.75
2023-01-03T15:14:42.421Z,95460.09
2023-01-03T15:16:44.205Z,95475.81
2023-01-03T15:18:47.101Z,95471.66
2023-01-03T15:20:51.427Z,95474.13
2023-01-03T15:22:53.323Z,95476.44
2023-01-03T15:25:03.972Z,95477.44
2023-01-03T15:27:51.510Z,95478.25
2023-01-03T15:29:53.196Z,95479.09
2023-01-03T15:31:54.957Z,95485.94
2023-01-03T15:34:20.974Z,95480.75
2023-01-03T15:36:25.422Z,95480.22
2023-01-03T15:38:38.130Z,95482.16
2023-01-03T15:40:40.373Z,95496.66
2023-01-03T15:43:02.066Z,95493.28
2023-01-03T15:45:20.123Z,95496.03
2023-01-03T15:47:22.794Z,95488.31
2023-01-03T15:49:25.482Z,95493.28
2023-01-03T15:51:27.377Z,95492.31
2023-01-03T15:53:43.825Z,95483.75
2023-01-03T15:55:47.936Z,95491.91
2023-01-03T15:57:54.068Z,95497.75
2023-01-03T16:00:01.368Z,95501.38
2023-01-03T16:02:03.509Z,95496.94
2023-01-03T16:04:05.465Z,95494.84
2023-01-03T16:06:07.176Z,95492.34
2023-01-03T16:08:24.108Z,95498.28
2023-01-03T16:10:25.786Z,95496.13
2023-01-03T16:12:35.907Z,95498.44
2023-01-03T16:14:40.124Z,95499.31
2023-01-03T16:16:44.294Z,95492.69
2023-01-03T16:18:46.339Z,95495.66
2023-01-03T16:20:47.979Z,95506.16
2023-01-03T16:23:00.616Z,95504.28
2023-01-03T16:25:05.040Z,95500.22
2023-01-03T16:27:14.897Z,95519.81
2023-01-03T16:29:16.728Z,95519.69
2023-01-03T16:31:28.722Z,95520.94
2023-01-03T16:33:33.816Z,95519.44
2023-01-03T16:35:36.011Z,95518.13
2023-01-03T16:37:37.857Z,95521.75
2023-01-03T16:39:45.743Z,95523.69
2023-01-03T16:42:09.668Z,95529.63
2023-01-03T16:44:11.381Z,95529.88
2023-01-03T16:46:15.256Z,95538.00
2023-01-03T16:48:19.109Z,95535.78
2023-01-03T16:50:20.796Z,95543.91
2023-01-03T16:52:25.865Z,95537.97
2023-01-03T16:54:27.568Z,95538.53
2023-01-03T16:56:29.339Z,95547.22
2023-01-03T16:58:31.062Z,95546.41
2023-01-03T17:00:34.602Z,95544.06
2023-01-03T17:02:36.315Z,95543.25
2023-01-03T17:04:38.035Z,95547.13
2023-01-03T17:06:41.032Z,95548.63
2023-01-03T17:08:42.957Z,95551.41
2023-01-03T17:10:47.007Z,95555.00
2023-01-03T17:12:48.814Z,95555.69
2023-01-03T17:14:50.693Z,95551.78
2023-01-03T17:16:52.453Z,95546.28
2023-01-03T17:18:54.371Z,95548.91
2023-01-03T17:21:02.019Z,95545.59
2023-01-03T17:23:04.517Z,95550.22
2023-01-03T17:25:06.650Z,95549.59
2023-01-03T17:27:19.880Z,95554.53
2023-01-03T17:29:24.455Z,95546.97
2023-01-03T17:31:26.646Z,95550.16
2023-01-03T17:33:33.808Z,95554.16
2023-01-03T17:35:37.638Z,95549.63
2023-01-03T17:38:05.743Z,95552.94
2023-01-03T17:40:01.183Z,95551.28
2023-01-03T17:42:16.337Z,95552.56
2023-01-03T17:44:18.242Z,95553.22
2023-01-03T17:46:40.785Z,95545.25
2023-01-03T17:49:01.375Z,95556.88
2023-01-03T17:51:03.208Z,95551.31
2023-01-03T17:53:04.939Z,95552.00
2023-01-03T17:55:19.722Z,95550.91
2023-01-03T17:57:21.459Z,95547.88
2023-01-03T17:59:23.124Z,95546.22
2023-01-03T18:01:24.980Z,95543.88
2023-01-03T18:03:26.816Z,95554.38
2023-01-03T18:05:29.879Z,95557.16
2023-01-03T18:07:33.194Z,95555.50
2023-01-03T18:09:34.988Z,95559.09
2023-01-03T18:11:36.910Z,95559.91
2023-01-03T18:13:39.088Z,95559.38
2023-01-03T18:15:40.807Z,95567.09
2023-01-03T18:17:42.538Z,95561.59
2023-01-03T18:19:44.323Z,95572.53
2023-01-03T18:21:46.013Z,95563.53
2023-01-03T18:23:52.699Z,95561.22
2023-01-03T18:25:55.083Z,95565.09
2023-01-03T18:28:00.478Z,95571.97
2023-01-03T18:30:02.307Z,95570.19
2023-01-03T18:32:26.353Z,95580.53
2023-01-03T18:34:28.226Z,95574.59
2023-01-03T18:36:51.696Z,95576.25
2023-01-03T18:39:00.993Z,95579.44
2023-01-03T18:41:05.739Z,95577.63
2023-01-03T18:43:14.080Z,95586.06
2023-01-03T18:45:16.247Z,95580.13
2023-01-03T18:47:18.273Z,95592.81
2023-01-03T18:49:19.939Z,95586.19
2023-01-03T18:51:24.550Z,95592.00
2023-01-03T18:53:28.866Z,95590.06
2023-01-03T18:55:33.665Z,95593.09
2023-01-03T18:57:35.258Z,95593.38
2023-01-03T18:59:36.899Z,95590.63
2023-01-03T19:01:38.713Z,95586.06
2023-01-03T19:03:42.569Z,95589.66
2023-01-03T19:05:44.147Z,95585.41
2023-01-03T19:07:47.231Z,95582.91
2023-01-03T19:09:49.389Z,95581.78
2023-01-03T19:11:52.331Z,95590.47
2023-01-03T19:13:55.074Z,95588.00
2023-01-03T19:15:57.147Z,95584.97
2023-01-03T19:18:01.530Z,95583.31
2023-01-03T19:20:03.259Z,95584.00
2023-01-03T19:22:15.528Z,95583.03
2023-01-03T19:24:39.067Z,95574.75
2023-01-03T19:26:44.243Z,95575.47
2023-01-03T19:28:45.870Z,95580.69
2023-01-03T19:30:47.888Z,95577.66
2023-01-03T19:32:55.066Z,95574.91
2023-01-03T19:34:56.991Z,95576.84
2023-01-03T19:36:58.863Z,95575.59
2023-01-03T19:39:00.501Z,95568.41
2023-01-03T19:41:02.219Z,95584.84
2023-01-03T19:43:04.337Z,95570.19
2023-01-03T19:45:15.584Z,95581.91
2023-01-03T19:47:18.784Z,95581.78
2023-01-03T19:49:21.519Z,95579.84
2023-01-03T19:51:23.447Z,95578.75
2023-01-03T19:53:25.376Z,95580.41
2023-01-03T19:55:29.739Z,95588.13
2023-01-03T19:57:33.705Z,95578.88
2023-01-03T19:59:37.444Z,95580.41
2023-01-03T20:02:14.125Z,95581.50
2023-01-03T20:04:02.002Z,95575.19
2023-01-03T20:06:03.959Z,95579.03
2023-01-03T20:08:12.204Z,95578.06
2023-01-03T20:10:18.888Z,95587.31
2023-01-03T20:12:25.105Z,95583.31
2023-01-03T20:14:28.929Z,95591.72
2023-01-03T20:16:30.700Z,95589.78
2023-01-03T20:18:36.421Z,95581.22
2023-01-03T20:20:38.611Z,95586.47
2023-01-03T20:25:04.223Z,95581.66
2023-01-03T20:27:05.987Z,95580.53
2023-01-03T20:29:10.168Z,95585.09
2023-01-03T20:31:16.724Z,95585.09
2023-01-03T20:33:21.804Z,95582.63
2023-01-03T20:37:51.379Z,95585.09
2023-01-03T20:39:53.339Z,95587.59
2023-01-03T20:41:58.612Z,95587.31
2023-01-03T20:44:08.106Z,95591.19
2023-01-03T20:46:21.069Z,95589.50
2023-01-03T20:48:26.173Z,95587.72
2023-01-03T20:50:29.364Z,95585.78
2023-01-03T20:52:31.151Z,95582.63
2023-01-03T20:54:32.881Z,95571.03
2023-01-03T20:56:34.784Z,95592.16
2023-01-03T20:58:36.506Z,95583.44
2023-01-03T21:00:38.597Z,95589.97
2023-01-03T21:02:40.404Z,95588.56
2023-01-03T21:04:42.388Z,95591.03
2023-01-03T21:06:45.213Z,95599.19
2023-01-03T21:08:56.557Z,95586.78
2023-01-03T21:10:58.502Z,95588.16
2023-01-03T21:13:00.192Z,95589.97
2023-01-03T21:15:02.022Z,95592.00
2023-01-03T21:17:03.668Z,95593.53
2023-01-03T21:19:06.763Z,95600.00
2023-01-03T21:21:15.737Z,95595.59
2023-01-03T21:23:19.059Z,95581.66
2023-01-03T21:25:33.016Z,95588.69
2023-01-03T21:27:35.908Z,95593.66
2023-01-03T21:29:37.771Z,95585.38
2023-01-03T21:31:42.146Z,95585.66
2023-01-03T21:33:44.685Z,95593.66
2023-01-03T21:35:46.716Z,95588.16
2023-01-03T21:37:48.987Z,95589.38
2023-01-03T21:39:50.586Z,95598.38
2023-01-03T21:42:10.770Z,95595.88
2023-01-03T21:44:12.609Z,95604.84
2023-01-03T21:46:20.327Z,95612.13
2023-01-03T21:48:22.069Z,95599.31
2023-01-03T21:50:24.643Z,95598.75
2023-01-03T21:52:26.323Z,95611.31
2023-01-03T21:54:28.075Z,95607.72
2023-01-03T21:56:29.769Z,95607.97
2023-01-03T21:58:31.541Z,95607.16
2023-01-03T22:00:33.636Z,95611.13
2023-01-03T22:02:59.714Z,95607.28
2023-01-03T22:05:01.948Z,95599.72
2023-01-03T22:07:03.705Z,95603.28
2023-01-03T22:09:06.335Z,95603.19
2023-01-03T22:11:08.421Z,95609.50
2023-01-03T22:13:10.789Z,95603.00
2023-01-03T22:15:12.663Z,95606.19
2023-01-03T22:17:14.913Z,95609.22
2023-01-03T22:19:16.716Z,95598.13
2023-01-03T22:21:19.024Z,95592.19
2023-01-03T22:23:20.812Z,95595.91
2023-01-03T22:25:23.843Z,95600.75
2023-01-03T22:27:25.608Z,95604.06
2023-01-03T22:29:27.268Z,95605.69
2023-01-03T22:31:29.008Z,95600.34
2023-01-03T22:33:33.180Z,95596.44
2023-01-03T22:35:34.901Z,95592.72
2023-01-03T22:37:36.772Z,95587.50
2023-01-03T22:39:38.604Z,95581.28
2023-01-03T22:41:40.418Z,95594.66
2023-01-03T22:43:42.659Z,95593.72
2023-01-03T22:45:44.435Z,95590.94
2023-01-03T22:47:46.262Z,95590.91
2023-01-03T22:49:48.129Z,95597.69
2023-01-03T22:51:49.876Z,95589.25
2023-01-03T22:53:51.607Z,95589.38
2023-01-03T22:55:53.336Z,95589.53
2023-01-03T22:57:55.137Z,95603.72
2023-01-03T22:59:56.806Z,95598.47
2023-01-03T23:01:58.852Z,95598.31
2023-01-03T23:04:01.439Z,95603.97
2023-01-03T23:06:11.544Z,95594.47
2023-01-03T23:08:13.249Z,95592.91
2023-01-03T23:10:14.969Z,95586.16
2023-01-03T23:12:35.329Z,95587.84
2023-01-03T23:14:37.165Z,95591.84
2023-01-03T23:16:39.359Z,95600.41
2023-01-03T23:18:41.142Z,95585.06
2023-01-03T23:20:48.926Z,95596.53
2023-01-03T23:22:57.435Z,95588.25
2023-01-03T23:25:01.209Z,95590.63
2023-01-03T23:27:03.035Z,95602.88
2023-01-03T23:29:05.100Z,95590.47
2023-01-03T23:31:06.848Z,95598.03
2023-01-03T23:33:08.814Z,95591.84
2023-01-03T23:35:10.565Z,95594.03
2023-01-03T23:37:12.262Z,95593.63
2023-01-03T23:39:16.178Z,95584.81
2023-01-03T23:41:18.046Z,95597.50
2023-01-03T23:43:19.682Z,95586.03
2023-01-03T23:45:21.370Z,95584.53
2023-01-03T23:47:23.183Z,95576.16
2023-01-03T23:49:24.935Z,95586.75
2023-01-03T23:51:27.290Z,95603.44
2023-01-03T23:53:29.141Z,95590.34
2023-01-03T23:55:30.863Z,95585.81
2023-01-03T23:57:32.585Z,95593.78
2023-01-03T23:59:34.336Z,95581.16
